San Juan Capistrano, CA

3:57 PM PST on March 01, 2015 (GMT -0800)
Ortega | Change Station
CLOSE
Current Station
Personal Weather Station
Location: San Juan Capistrano, CA
Elevation: 185 ft
Nearby Weather Stations

Elev 185 ft 33.50 °N, 117.60 °W | Updated 4 minutes ago

Overcast
Overcast
61.2 °F
Feels Like 61.2 °F
N
1.0
Wind Variable Wind from SE
Gusts 7.0 mph

Today
High -- | Low -- °F
--% Chance of Precip.
Yesterday
High -- | Low -- °F
Precip. -- in
6:18 AM 5:47 PM
Waxing Gibbous, 88% visible
Pressure 30.17 in
Visibility 8.0 miles
Clouds Few 5000 ft
Mostly Cloudy 7000 ft
Overcast 11000 ft
Dew Point 45 °F
Humidity 56%
Rainfall 0.05 in
Snow Depth Not available.
UV 1 out of 12
Pollen 7.90 out of 12
Air Quality Not available.
Flu Activity Not available.
METAR KNXF 012256Z AUTO 09010KT 8SM -RA FEW050 BKN070 OVC110 13/09 A2991 RMK AO2 RAB25 SLP215 P0000 T01330089 $

More Conditions Fewer Conditions

Pressure 30.17 in
Visibility 8.0 miles
Clouds Few 5000 ft
Mostly Cloudy 7000 ft
Overcast 11000 ft
Dew Point 45 °F
Humidity 56%
Rainfall 0.05 in
Snow Depth Not available.
UV 1 out of 12
Pollen 7.90 out of 12
Air Quality Not available.
Flu Activity Not available.
METAR KNXF 012256Z AUTO 09010KT 8SM -RA FEW050 BKN070 OVC110 13/09 A2991 RMK AO2 RAB25 SLP215 P0000 T01330089 $

More Conditions Fewer Conditions

10-Day Weather Forecast

Almanac

Astronomy

Mar. 01, 2015 Rise Set
Actual Time
Civil Twilight
Nautical Twilight
Astronomical Twilight
Moon
Length of Visible Light
Length of Day
Tomorrow will be .
, % of the Moon is Illuminated

Today's Extremes

State Highs State Lows

Community

WunderPhotos

Upload Photos

1,801,614 photos uploaded!

WunderBlogs® & News

Nearby

Air Quality

  Air Quality AQ Index Pollutant
Not available.

Snow Depth

Station Depth Elevation

Earthquake Activity

City Distance Mag. Time & Date
Minimum magnitude displayed is 2.5.

Coastal Water Temperatures

Place Temperature

Nearby Weather Stations